sensor_id;sensor_type;location;lat;lon;timestamp;P1;durP1;ratioP1;P2;durP2;ratioP2
12271;SDS011;6198;51.446;6.698;2023-08-20T00:01:34;12.90;;;9.77;;
12271;SDS011;6198;51.446;6.698;2023-08-20T00:04:00;12.13;;;9.65;;
12271;SDS011;6198;51.446;6.698;2023-08-20T00:06:27;12.77;;;9.63;;
12271;SDS011;6198;51.446;6.698;2023-08-20T00:08:53;12.38;;;9.77;;
12271;SDS011;6198;51.446;6.698;2023-08-20T00:11:19;15.00;;;9.88;;
12271;SDS011;6198;51.446;6.698;2023-08-20T00:13:45;14.40;;;9.93;;
12271;SDS011;6198;51.446;6.698;2023-08-20T00:16:11;20.93;;;15.03;;
12271;SDS011;6198;51.446;6.698;2023-08-20T00:18:38;21.83;;;16.75;;
12271;SDS011;6198;51.446;6.698;2023-08-20T00:21:04;21.40;;;15.23;;
12271;SDS011;6198;51.446;6.698;2023-08-20T00:23:30;19.55;;;15.07;;
12271;SDS011;6198;51.446;6.698;2023-08-20T00:25:56;16.67;;;10.15;;
12271;SDS011;6198;51.446;6.698;2023-08-20T00:28:22;21.98;;;14.93;;
12271;SDS011;6198;51.446;6.698;2023-08-20T00:30:48;19.20;;;14.80;;
12271;SDS011;6198;51.446;6.698;2023-08-20T00:33:14;14.48;;;10.85;;
12271;SDS011;6198;51.446;6.698;2023-08-20T00:35:40;13.43;;;8.82;;
12271;SDS011;6198;51.446;6.698;2023-08-20T00:38:07;12.02;;;9.55;;
12271;SDS011;6198;51.446;6.698;2023-08-20T00:40:32;11.57;;;8.77;;
12271;SDS011;6198;51.446;6.698;2023-08-20T00:42:59;12.55;;;9.20;;
12271;SDS011;6198;51.446;6.698;2023-08-20T00:45:25;13.43;;;8.68;;
12271;SDS011;6198;51.446;6.698;2023-08-20T00:47:52;10.00;;;8.60;;
12271;SDS011;6198;51.446;6.698;2023-08-20T00:50:18;10.75;;;9.57;;
12271;SDS011;6198;51.446;6.698;2023-08-20T00:52:45;12.20;;;9.48;;
12271;SDS011;6198;51.446;6.698;2023-08-20T00:55:11;14.25;;;10.45;;
12271;SDS011;6198;51.446;6.698;2023-08-20T00:57:41;10.85;;;9.68;;
12271;SDS011;6198;51.446;6.698;2023-08-20T01:00:07;10.80;;;9.70;;
12271;SDS011;6198;51.446;6.698;2023-08-20T01:02:34;14.43;;;10.32;;
12271;SDS011;6198;51.446;6.698;2023-08-20T01:05:00;13.85;;;10.07;;
12271;SDS011;6198;51.446;6.698;2023-08-20T01:08:11;11.32;;;10.00;;
12271;SDS011;6198;51.446;6.698;2023-08-20T01:10:18;11.55;;;10.00;;
12271;SDS011;6198;51.446;6.698;2023-08-20T01:12:47;14.68;;;10.30;;
12271;SDS011;6198;51.446;6.698;2023-08-20T01:15:13;12.60;;;10.07;;
12271;SDS011;6198;51.446;6.698;2023-08-20T01:17:40;12.57;;;9.90;;
12271;SDS011;6198;51.446;6.698;2023-08-20T01:20:07;11.03;;;9.60;;
12271;SDS011;6198;51.446;6.698;2023-08-20T01:30:22;12.00;;;9.43;;
12271;SDS011;6198;51.446;6.698;2023-08-20T01:32:50;11.90;;;9.50;;
12271;SDS011;6198;51.446;6.698;2023-08-20T01:35:16;13.38;;;9.63;;
12271;SDS011;6198;51.446;6.698;2023-08-20T01:37:43;15.90;;;9.70;;
12271;SDS011;6198;51.446;6.698;2023-08-20T01:40:09;13.15;;;11.20;;
12271;SDS011;6198;51.446;6.698;2023-08-20T01:42:38;12.38;;;9.63;;
12271;SDS011;6198;51.446;6.698;2023-08-20T01:45:05;11.85;;;10.30;;
12271;SDS011;6198;51.446;6.698;2023-08-20T01:47:31;12.40;;;10.03;;
12271;SDS011;6198;51.446;6.698;2023-08-20T01:49:57;11.02;;;9.93;;
12271;SDS011;6198;51.446;6.698;2023-08-20T01:52:23;14.20;;;10.50;;
12271;SDS011;6198;51.446;6.698;2023-08-20T01:54:49;12.60;;;10.13;;
12271;SDS011;6198;51.446;6.698;2023-08-20T01:57:16;12.75;;;10.98;;
12271;SDS011;6198;51.446;6.698;2023-08-20T01:59:42;13.63;;;10.80;;
12271;SDS011;6198;51.446;6.698;2023-08-20T02:02:08;13.43;;;10.80;;
12271;SDS011;6198;51.446;6.698;2023-08-20T02:04:34;14.23;;;12.10;;
12271;SDS011;6198;51.446;6.698;2023-08-20T02:07:00;12.88;;;11.20;;
12271;SDS011;6198;51.446;6.698;2023-08-20T02:09:26;12.43;;;11.13;;
12271;SDS011;6198;51.446;6.698;2023-08-20T02:11:52;17.77;;;11.18;;
12271;SDS011;6198;51.446;6.698;2023-08-20T02:14:18;11.73;;;10.52;;
12271;SDS011;6198;51.446;6.698;2023-08-20T02:16:45;13.85;;;10.98;;
12271;SDS011;6198;51.446;6.698;2023-08-20T02:19:12;13.32;;;10.65;;
12271;SDS011;6198;51.446;6.698;2023-08-20T02:21:39;11.77;;;10.43;;
12271;SDS011;6198;51.446;6.698;2023-08-20T02:24:05;12.48;;;10.45;;
12271;SDS011;6198;51.446;6.698;2023-08-20T02:26:31;16.33;;;11.03;;
12271;SDS011;6198;51.446;6.698;2023-08-20T02:28:57;12.43;;;11.00;;
12271;SDS011;6198;51.446;6.698;2023-08-20T02:31:23;13.23;;;10.00;;
12271;SDS011;6198;51.446;6.698;2023-08-20T02:33:49;14.23;;;10.30;;
12271;SDS011;6198;51.446;6.698;2023-08-20T02:36:15;14.18;;;10.68;;
12271;SDS011;6198;51.446;6.698;2023-08-20T02:38:41;14.00;;;10.82;;
12271;SDS011;6198;51.446;6.698;2023-08-20T02:41:07;12.10;;;10.70;;
12271;SDS011;6198;51.446;6.698;2023-08-20T02:43:33;13.17;;;10.77;;
12271;SDS011;6198;51.446;6.698;2023-08-20T02:45:58;14.07;;;10.20;;
12271;SDS011;6198;51.446;6.698;2023-08-20T02:48:24;14.65;;;10.52;;
12271;SDS011;6198;51.446;6.698;2023-08-20T02:50:52;12.35;;;10.38;;
12271;SDS011;6198;51.446;6.698;2023-08-20T02:53:19;14.93;;;10.30;;
12271;SDS011;6198;51.446;6.698;2023-08-20T02:55:45;14.13;;;10.20;;
12271;SDS011;6198;51.446;6.698;2023-08-20T02:58:11;15.52;;;9.95;;
12271;SDS011;6198;51.446;6.698;2023-08-20T03:00:37;12.15;;;9.55;;
12271;SDS011;6198;51.446;6.698;2023-08-20T03:03:03;12.15;;;10.00;;
12271;SDS011;6198;51.446;6.698;2023-08-20T03:05:32;13.63;;;9.63;;
12271;SDS011;6198;51.446;6.698;2023-08-20T03:07:58;13.02;;;9.40;;
12271;SDS011;6198;51.446;6.698;2023-08-20T03:10:24;14.75;;;9.98;;
12271;SDS011;6198;51.446;6.698;2023-08-20T03:12:50;13.65;;;9.90;;
12271;SDS011;6198;51.446;6.698;2023-08-20T03:15:16;13.18;;;10.15;;
12271;SDS011;6198;51.446;6.698;2023-08-20T03:17:42;12.57;;;10.18;;
12271;SDS011;6198;51.446;6.698;2023-08-20T03:20:09;11.25;;;9.68;;
12271;SDS011;6198;51.446;6.698;2023-08-20T03:22:36;12.97;;;9.60;;
12271;SDS011;6198;51.446;6.698;2023-08-20T03:25:03;13.65;;;10.32;;
12271;SDS011;6198;51.446;6.698;2023-08-20T03:27:29;13.82;;;10.02;;
12271;SDS011;6198;51.446;6.698;2023-08-20T03:29:55;9.80;;;8.80;;
12271;SDS011;6198;51.446;6.698;2023-08-20T03:32:21;12.48;;;10.57;;
12271;SDS011;6198;51.446;6.698;2023-08-20T03:34:47;14.82;;;10.55;;
12271;SDS011;6198;51.446;6.698;2023-08-20T03:37:13;15.73;;;10.50;;
12271;SDS011;6198;51.446;6.698;2023-08-20T03:39:39;13.35;;;10.55;;
12271;SDS011;6198;51.446;6.698;2023-08-20T03:42:05;15.00;;;11.27;;
12271;SDS011;6198;51.446;6.698;2023-08-20T03:44:31;16.60;;;11.70;;
12271;SDS011;6198;51.446;6.698;2023-08-20T03:46:57;13.32;;;11.02;;
12271;SDS011;6198;51.446;6.698;2023-08-20T03:49:23;14.85;;;11.40;;
12271;SDS011;6198;51.446;6.698;2023-08-20T03:51:49;13.88;;;11.30;;
12271;SDS011;6198;51.446;6.698;2023-08-20T03:54:15;15.93;;;10.95;;
12271;SDS011;6198;51.446;6.698;2023-08-20T03:56:41;13.17;;;10.83;;
12271;SDS011;6198;51.446;6.698;2023-08-20T03:59:07;16.05;;;10.93;;
12271;SDS011;6198;51.446;6.698;2023-08-20T04:01:33;14.45;;;11.38;;
12271;SDS011;6198;51.446;6.698;2023-08-20T04:04:01;15.93;;;11.88;;
12271;SDS011;6198;51.446;6.698;2023-08-20T04:06:28;13.40;;;11.70;;
12271;SDS011;6198;51.446;6.698;2023-08-20T04:08:54;15.43;;;12.35;;
12271;SDS011;6198;51.446;6.698;2023-08-20T04:11:20;13.32;;;11.93;;
12271;SDS011;6198;51.446;6.698;2023-08-20T04:13:46;15.57;;;11.80;;
12271;SDS011;6198;51.446;6.698;2023-08-20T04:16:12;14.25;;;11.00;;
12271;SDS011;6198;51.446;6.698;2023-08-20T04:18:38;16.43;;;10.60;;
12271;SDS011;6198;51.446;6.698;2023-08-20T04:21:04;12.67;;;10.90;;
12271;SDS011;6198;51.446;6.698;2023-08-20T04:23:31;14.33;;;10.50;;
12271;SDS011;6198;51.446;6.698;2023-08-20T04:25:56;15.05;;;11.30;;
12271;SDS011;6198;51.446;6.698;2023-08-20T04:28:22;12.90;;;10.93;;
12271;SDS011;6198;51.446;6.698;2023-08-20T04:30:48;13.97;;;9.77;;
12271;SDS011;6198;51.446;6.698;2023-08-20T04:33:19;11.27;;;10.00;;
12271;SDS011;6198;51.446;6.698;2023-08-20T04:35:44;17.13;;;10.20;;
12271;SDS011;6198;51.446;6.698;2023-08-20T04:38:10;15.50;;;10.07;;
12271;SDS011;6198;51.446;6.698;2023-08-20T04:40:36;12.63;;;9.87;;
12271;SDS011;6198;51.446;6.698;2023-08-20T04:43:02;12.07;;;9.80;;
12271;SDS011;6198;51.446;6.698;2023-08-20T04:45:28;17.25;;;11.77;;
12271;SDS011;6198;51.446;6.698;2023-08-20T04:47:54;12.60;;;9.90;;
12271;SDS011;6198;51.446;6.698;2023-08-20T04:50:20;14.23;;;9.97;;
12271;SDS011;6198;51.446;6.698;2023-08-20T04:52:46;16.00;;;10.90;;
12271;SDS011;6198;51.446;6.698;2023-08-20T04:55:12;14.00;;;10.80;;
12271;SDS011;6198;51.446;6.698;2023-08-20T04:57:40;14.80;;;12.20;;
12271;SDS011;6198;51.446;6.698;2023-08-20T05:00:06;12.07;;;10.37;;
12271;SDS011;6198;51.446;6.698;2023-08-20T05:02:34;15.07;;;10.43;;
12271;SDS011;6198;51.446;6.698;2023-08-20T05:05:01;17.80;;;11.13;;
12271;SDS011;6198;51.446;6.698;2023-08-20T05:07:27;17.60;;;12.65;;
12271;SDS011;6198;51.446;6.698;2023-08-20T05:09:53;14.43;;;11.30;;
12271;SDS011;6198;51.446;6.698;2023-08-20T05:12:19;17.50;;;11.50;;
12271;SDS011;6198;51.446;6.698;2023-08-20T05:14:45;20.27;;;11.63;;
12271;SDS011;6198;51.446;6.698;2023-08-20T05:17:11;15.80;;;10.57;;
12271;SDS011;6198;51.446;6.698;2023-08-20T05:19:37;14.00;;;10.77;;
12271;SDS011;6198;51.446;6.698;2023-08-20T05:22:02;14.83;;;10.07;;
12271;SDS011;6198;51.446;6.698;2023-08-20T05:24:28;14.57;;;10.57;;
12271;SDS011;6198;51.446;6.698;2023-08-20T05:29:30;15.47;;;11.53;;
12271;SDS011;6198;51.446;6.698;2023-08-20T05:31:56;14.67;;;11.43;;
12271;SDS011;6198;51.446;6.698;2023-08-20T05:34:22;16.33;;;11.20;;
12271;SDS011;6198;51.446;6.698;2023-08-20T05:36:48;15.80;;;12.67;;
12271;SDS011;6198;51.446;6.698;2023-08-20T05:39:14;16.25;;;11.98;;
12271;SDS011;6198;51.446;6.698;2023-08-20T05:41:40;14.03;;;11.37;;
12271;SDS011;6198;51.446;6.698;2023-08-20T05:44:06;13.70;;;10.83;;
12271;SDS011;6198;51.446;6.698;2023-08-20T05:46:32;18.03;;;11.13;;
12271;SDS011;6198;51.446;6.698;2023-08-20T05:48:57;12.77;;;10.47;;
12271;SDS011;6198;51.446;6.698;2023-08-20T05:51:23;14.37;;;10.43;;
12271;SDS011;6198;51.446;6.698;2023-08-20T05:53:49;14.70;;;10.77;;
12271;SDS011;6198;51.446;6.698;2023-08-20T05:56:15;13.70;;;11.27;;
12271;SDS011;6198;51.446;6.698;2023-08-20T05:58:41;16.73;;;12.77;;
12271;SDS011;6198;51.446;6.698;2023-08-20T06:01:07;20.73;;;14.07;;
12271;SDS011;6198;51.446;6.698;2023-08-20T06:03:33;18.37;;;14.13;;
12271;SDS011;6198;51.446;6.698;2023-08-20T06:05:59;22.13;;;14.83;;
12271;SDS011;6198;51.446;6.698;2023-08-20T06:08:25;17.57;;;13.97;;
12271;SDS011;6198;51.446;6.698;2023-08-20T06:10:51;18.90;;;13.60;;
12271;SDS011;6198;51.446;6.698;2023-08-20T06:13:17;18.17;;;14.57;;
12271;SDS011;6198;51.446;6.698;2023-08-20T06:15:43;24.17;;;16.00;;
12271;SDS011;6198;51.446;6.698;2023-08-20T06:18:10;16.80;;;15.07;;
12271;SDS011;6198;51.446;6.698;2023-08-20T06:20:36;19.10;;;16.50;;
12271;SDS011;6198;51.446;6.698;2023-08-20T06:23:02;18.57;;;15.43;;
12271;SDS011;6198;51.446;6.698;2023-08-20T06:25:28;23.80;;;16.93;;
12271;SDS011;6198;51.446;6.698;2023-08-20T06:27:54;20.73;;;16.03;;
12271;SDS011;6198;51.446;6.698;2023-08-20T06:30:20;18.97;;;17.07;;
12271;SDS011;6198;51.446;6.698;2023-08-20T06:32:46;20.13;;;15.33;;
12271;SDS011;6198;51.446;6.698;2023-08-20T06:35:12;20.67;;;17.27;;
12271;SDS011;6198;51.446;6.698;2023-08-20T06:37:38;22.30;;;19.00;;
12271;SDS011;6198;51.446;6.698;2023-08-20T06:40:05;25.90;;;20.73;;
12271;SDS011;6198;51.446;6.698;2023-08-20T06:42:32;26.70;;;21.13;;
12271;SDS011;6198;51.446;6.698;2023-08-20T06:44:59;26.23;;;20.13;;
12271;SDS011;6198;51.446;6.698;2023-08-20T06:47:25;25.13;;;19.90;;
12271;SDS011;6198;51.446;6.698;2023-08-20T06:49:51;26.05;;;22.13;;
12271;SDS011;6198;51.446;6.698;2023-08-20T06:52:17;25.90;;;23.00;;
12271;SDS011;6198;51.446;6.698;2023-08-20T07:02:02;29.60;;;25.00;;
12271;SDS011;6198;51.446;6.698;2023-08-20T07:04:28;28.45;;;24.90;;
12271;SDS011;6198;51.446;6.698;2023-08-20T07:06:54;28.52;;;25.42;;
12271;SDS011;6198;51.446;6.698;2023-08-20T07:09:20;26.10;;;23.23;;
12271;SDS011;6198;51.446;6.698;2023-08-20T07:11:46;26.10;;;21.60;;
12271;SDS011;6198;51.446;6.698;2023-08-20T07:14:12;30.07;;;24.17;;
12271;SDS011;6198;51.446;6.698;2023-08-20T07:16:38;40.37;;;29.17;;
12271;SDS011;6198;51.446;6.698;2023-08-20T07:19:04;38.43;;;31.17;;
12271;SDS011;6198;51.446;6.698;2023-08-20T07:21:30;35.33;;;29.70;;
12271;SDS011;6198;51.446;6.698;2023-08-20T07:23:56;35.70;;;29.90;;
12271;SDS011;6198;51.446;6.698;2023-08-20T07:26:22;36.47;;;30.63;;
12271;SDS011;6198;51.446;6.698;2023-08-20T07:28:48;38.35;;;30.13;;
12271;SDS011;6198;51.446;6.698;2023-08-20T07:31:24;43.35;;;31.38;;
12271;SDS011;6198;51.446;6.698;2023-08-20T07:33:51;40.92;;;30.92;;
12271;SDS011;6198;51.446;6.698;2023-08-20T07:36:17;35.92;;;27.88;;
12271;SDS011;6198;51.446;6.698;2023-08-20T07:38:43;35.58;;;26.25;;
12271;SDS011;6198;51.446;6.698;2023-08-20T07:41:10;37.03;;;26.13;;
12271;SDS011;6198;51.446;6.698;2023-08-20T07:43:39;34.45;;;25.70;;
12271;SDS011;6198;51.446;6.698;2023-08-20T07:46:06;33.72;;;25.73;;
12271;SDS011;6198;51.446;6.698;2023-08-20T07:48:32;34.85;;;25.08;;
12271;SDS011;6198;51.446;6.698;2023-08-20T07:50:59;28.25;;;23.75;;
12271;SDS011;6198;51.446;6.698;2023-08-20T07:53:25;31.17;;;25.47;;
12271;SDS011;6198;51.446;6.698;2023-08-20T07:55:51;31.30;;;24.40;;
12271;SDS011;6198;51.446;6.698;2023-08-20T07:58:17;34.13;;;24.53;;
12271;SDS011;6198;51.446;6.698;2023-08-20T08:00:43;26.53;;;21.20;;
12271;SDS011;6198;51.446;6.698;2023-08-20T08:03:09;27.92;;;22.75;;
12271;SDS011;6198;51.446;6.698;2023-08-20T08:05:35;27.58;;;23.60;;
12271;SDS011;6198;51.446;6.698;2023-08-20T08:08:01;29.80;;;24.25;;
12271;SDS011;6198;51.446;6.698;2023-08-20T08:10:27;28.17;;;22.42;;
12271;SDS011;6198;51.446;6.698;2023-08-20T08:12:53;28.40;;;23.40;;
12271;SDS011;6198;51.446;6.698;2023-08-20T08:15:19;26.47;;;22.23;;
12271;SDS011;6198;51.446;6.698;2023-08-20T08:17:45;30.17;;;21.70;;
12271;SDS011;6198;51.446;6.698;2023-08-20T08:20:11;27.73;;;21.80;;
12271;SDS011;6198;51.446;6.698;2023-08-20T08:22:37;27.17;;;22.63;;
12271;SDS011;6198;51.446;6.698;2023-08-20T08:25:03;28.25;;;20.88;;
12271;SDS011;6198;51.446;6.698;2023-08-20T08:27:30;26.00;;;21.70;;
12271;SDS011;6198;51.446;6.698;2023-08-20T08:29:56;25.70;;;22.88;;
12271;SDS011;6198;51.446;6.698;2023-08-20T08:32:22;24.30;;;21.70;;
12271;SDS011;6198;51.446;6.698;2023-08-20T08:34:48;23.02;;;20.65;;
12271;SDS011;6198;51.446;6.698;2023-08-20T08:37:13;24.02;;;20.00;;
12271;SDS011;6198;51.446;6.698;2023-08-20T08:39:40;22.05;;;18.67;;
12271;SDS011;6198;51.446;6.698;2023-08-20T08:42:06;22.20;;;17.70;;
12271;SDS011;6198;51.446;6.698;2023-08-20T08:44:33;21.27;;;18.55;;
12271;SDS011;6198;51.446;6.698;2023-08-20T08:47:01;22.10;;;18.73;;
12271;SDS011;6198;51.446;6.698;2023-08-20T08:49:27;23.13;;;18.30;;
12271;SDS011;6198;51.446;6.698;2023-08-20T08:51:56;23.13;;;18.53;;
12271;SDS011;6198;51.446;6.698;2023-08-20T08:54:23;19.77;;;17.75;;
12271;SDS011;6198;51.446;6.698;2023-08-20T08:56:49;19.63;;;17.52;;
12271;SDS011;6198;51.446;6.698;2023-08-20T08:59:15;24.75;;;22.15;;
12271;SDS011;6198;51.446;6.698;2023-08-20T09:01:41;20.63;;;18.42;;
12271;SDS011;6198;51.446;6.698;2023-08-20T09:04:07;19.35;;;17.35;;
12271;SDS011;6198;51.446;6.698;2023-08-20T09:06:46;17.63;;;15.73;;
12271;SDS011;6198;51.446;6.698;2023-08-20T09:09:12;19.83;;;17.58;;
12271;SDS011;6198;51.446;6.698;2023-08-20T09:11:38;20.80;;;17.77;;
12271;SDS011;6198;51.446;6.698;2023-08-20T09:14:04;24.25;;;21.65;;
12271;SDS011;6198;51.446;6.698;2023-08-20T09:16:31;22.73;;;19.02;;
12271;SDS011;6198;51.446;6.698;2023-08-20T09:19:00;22.37;;;19.83;;
12271;SDS011;6198;51.446;6.698;2023-08-20T09:21:29;24.42;;;20.20;;
12271;SDS011;6198;51.446;6.698;2023-08-20T09:24:00;23.77;;;21.25;;
12271;SDS011;6198;51.446;6.698;2023-08-20T09:26:27;24.05;;;21.00;;
12271;SDS011;6198;51.446;6.698;2023-08-20T09:28:54;24.60;;;22.08;;
12271;SDS011;6198;51.446;6.698;2023-08-20T09:31:22;25.37;;;22.33;;
12271;SDS011;6198;51.446;6.698;2023-08-20T09:34:02;23.08;;;20.52;;
12271;SDS011;6198;51.446;6.698;2023-08-20T09:36:32;24.08;;;21.55;;
12271;SDS011;6198;51.446;6.698;2023-08-20T09:38:58;25.35;;;22.48;;
12271;SDS011;6198;51.446;6.698;2023-08-20T09:41:24;25.43;;;21.57;;
12271;SDS011;6198;51.446;6.698;2023-08-20T09:43:56;22.83;;;20.63;;
12271;SDS011;6198;51.446;6.698;2023-08-20T09:46:23;21.88;;;19.67;;
12271;SDS011;6198;51.446;6.698;2023-08-20T09:48:50;19.77;;;17.73;;
12271;SDS011;6198;51.446;6.698;2023-08-20T09:51:22;20.95;;;18.77;;
12271;SDS011;6198;51.446;6.698;2023-08-20T09:53:53;16.55;;;14.88;;
12271;SDS011;6198;51.446;6.698;2023-08-20T09:56:24;15.63;;;14.02;;
12271;SDS011;6198;51.446;6.698;2023-08-20T09:58:53;16.58;;;14.60;;
12271;SDS011;6198;51.446;6.698;2023-08-20T10:01:20;16.50;;;14.90;;
12271;SDS011;6198;51.446;6.698;2023-08-20T10:03:45;17.77;;;16.05;;
12271;SDS011;6198;51.446;6.698;2023-08-20T10:06:12;17.20;;;15.40;;
12271;SDS011;6198;51.446;6.698;2023-08-20T10:08:38;16.52;;;14.70;;
12271;SDS011;6198;51.446;6.698;2023-08-20T10:11:04;15.10;;;13.60;;
12271;SDS011;6198;51.446;6.698;2023-08-20T10:13:30;14.95;;;13.43;;
12271;SDS011;6198;51.446;6.698;2023-08-20T10:15:56;16.15;;;14.07;;
12271;SDS011;6198;51.446;6.698;2023-08-20T10:18:22;15.80;;;13.43;;
12271;SDS011;6198;51.446;6.698;2023-08-20T10:20:51;13.70;;;12.40;;
12271;SDS011;6198;51.446;6.698;2023-08-20T10:23:21;11.93;;;10.70;;
12271;SDS011;6198;51.446;6.698;2023-08-20T10:25:53;11.93;;;10.50;;
12271;SDS011;6198;51.446;6.698;2023-08-20T10:28:24;9.10;;;8.20;;
12271;SDS011;6198;51.446;6.698;2023-08-20T10:31:03;11.70;;;8.45;;
12271;SDS011;6198;51.446;6.698;2023-08-20T10:33:36;11.38;;;8.52;;
12271;SDS011;6198;51.446;6.698;2023-08-20T10:36:09;10.63;;;8.57;;
12271;SDS011;6198;51.446;6.698;2023-08-20T10:38:36;12.23;;;8.25;;
12271;SDS011;6198;51.446;6.698;2023-08-20T10:41:04;9.35;;;8.25;;
12271;SDS011;6198;51.446;6.698;2023-08-20T10:48:39;10.48;;;9.48;;
12271;SDS011;6198;51.446;6.698;2023-08-20T10:51:09;11.20;;;8.50;;
12271;SDS011;6198;51.446;6.698;2023-08-20T10:53:35;10.90;;;8.00;;
12271;SDS011;6198;51.446;6.698;2023-08-20T10:56:19;11.40;;;9.65;;
12271;SDS011;6198;51.446;6.698;2023-08-20T10:58:45;12.90;;;8.80;;
12271;SDS011;6198;51.446;6.698;2023-08-20T11:01:19;8.55;;;7.65;;
12271;SDS011;6198;51.446;6.698;2023-08-20T11:03:46;10.03;;;7.63;;
12271;SDS011;6198;51.446;6.698;2023-08-20T11:06:13;9.68;;;7.68;;
12271;SDS011;6198;51.446;6.698;2023-08-20T11:08:39;10.00;;;7.95;;
12271;SDS011;6198;51.446;6.698;2023-08-20T11:11:06;8.80;;;7.55;;
12271;SDS011;6198;51.446;6.698;2023-08-20T11:13:33;11.52;;;8.00;;
12271;SDS011;6198;51.446;6.698;2023-08-20T11:16:00;9.77;;;7.40;;
12271;SDS011;6198;51.446;6.698;2023-08-20T11:18:26;8.87;;;5.73;;
12271;SDS011;6198;51.446;6.698;2023-08-20T11:20:53;7.97;;;5.90;;
12271;SDS011;6198;51.446;6.698;2023-08-20T11:23:19;7.82;;;5.30;;
12271;SDS011;6198;51.446;6.698;2023-08-20T11:25:45;7.13;;;5.72;;
12271;SDS011;6198;51.446;6.698;2023-08-20T11:28:11;7.78;;;5.30;;
12271;SDS011;6198;51.446;6.698;2023-08-20T11:30:37;7.50;;;5.07;;
12271;SDS011;6198;51.446;6.698;2023-08-20T11:33:03;7.43;;;4.97;;
12271;SDS011;6198;51.446;6.698;2023-08-20T11:35:30;6.72;;;5.03;;
12271;SDS011;6198;51.446;6.698;2023-08-20T11:37:56;6.85;;;5.05;;
12271;SDS011;6198;51.446;6.698;2023-08-20T11:40:23;8.45;;;5.10;;
12271;SDS011;6198;51.446;6.698;2023-08-20T11:42:49;7.07;;;5.30;;
12271;SDS011;6198;51.446;6.698;2023-08-20T11:45:15;6.10;;;5.20;;
12271;SDS011;6198;51.446;6.698;2023-08-20T11:47:41;7.88;;;5.70;;
12271;SDS011;6198;51.446;6.698;2023-08-20T11:50:08;7.15;;;5.38;;
12271;SDS011;6198;51.446;6.698;2023-08-20T11:52:35;6.47;;;4.72;;
12271;SDS011;6198;51.446;6.698;2023-08-20T11:55:02;6.40;;;4.60;;
12271;SDS011;6198;51.446;6.698;2023-08-20T11:57:28;5.97;;;4.70;;
12271;SDS011;6198;51.446;6.698;2023-08-20T11:59:54;9.23;;;4.88;;
12271;SDS011;6198;51.446;6.698;2023-08-20T12:02:26;7.20;;;4.80;;
12271;SDS011;6198;51.446;6.698;2023-08-20T12:04:55;10.15;;;5.18;;
12271;SDS011;6198;51.446;6.698;2023-08-20T12:07:24;7.72;;;5.00;;
12271;SDS011;6198;51.446;6.698;2023-08-20T12:09:54;6.72;;;4.95;;
12271;SDS011;6198;51.446;6.698;2023-08-20T12:12:21;5.97;;;4.20;;
12271;SDS011;6198;51.446;6.698;2023-08-20T12:14:48;8.05;;;4.20;;
12271;SDS011;6198;51.446;6.698;2023-08-20T12:17:17;7.80;;;3.95;;
12271;SDS011;6198;51.446;6.698;2023-08-20T12:19:44;6.68;;;4.47;;
12271;SDS011;6198;51.446;6.698;2023-08-20T12:22:10;9.32;;;4.28;;
12271;SDS011;6198;51.446;6.698;2023-08-20T12:24:37;6.45;;;4.13;;
12271;SDS011;6198;51.446;6.698;2023-08-20T12:27:03;5.38;;;3.92;;
12271;SDS011;6198;51.446;6.698;2023-08-20T12:29:29;5.50;;;4.10;;
12271;SDS011;6198;51.446;6.698;2023-08-20T12:31:55;7.53;;;4.18;;
12271;SDS011;6198;51.446;6.698;2023-08-20T12:34:21;7.60;;;4.00;;
12271;SDS011;6198;51.446;6.698;2023-08-20T12:36:48;8.77;;;3.97;;
12271;SDS011;6198;51.446;6.698;2023-08-20T12:39:14;5.15;;;3.50;;
12271;SDS011;6198;51.446;6.698;2023-08-20T12:41:40;6.10;;;3.63;;
12271;SDS011;6198;51.446;6.698;2023-08-20T12:44:06;6.15;;;3.47;;
12271;SDS011;6198;51.446;6.698;2023-08-20T12:46:32;6.40;;;3.35;;
12271;SDS011;6198;51.446;6.698;2023-08-20T12:48:58;5.32;;;3.25;;
12271;SDS011;6198;51.446;6.698;2023-08-20T12:51:24;8.40;;;3.90;;
12271;SDS011;6198;51.446;6.698;2023-08-20T12:53:50;5.53;;;3.80;;
12271;SDS011;6198;51.446;6.698;2023-08-20T12:56:16;6.57;;;3.58;;
12271;SDS011;6198;51.446;6.698;2023-08-20T12:58:42;5.73;;;3.67;;
12271;SDS011;6198;51.446;6.698;2023-08-20T13:01:08;10.70;;;3.80;;
12271;SDS011;6198;51.446;6.698;2023-08-20T13:03:34;6.43;;;3.42;;
12271;SDS011;6198;51.446;6.698;2023-08-20T13:06:01;7.88;;;3.47;;
12271;SDS011;6198;51.446;6.698;2023-08-20T13:08:27;9.27;;;3.55;;
12271;SDS011;6198;51.446;6.698;2023-08-20T13:10:54;8.23;;;3.63;;
12271;SDS011;6198;51.446;6.698;2023-08-20T13:13:21;6.90;;;3.15;;
12271;SDS011;6198;51.446;6.698;2023-08-20T13:15:48;6.40;;;3.25;;
12271;SDS011;6198;51.446;6.698;2023-08-20T13:18:14;6.45;;;3.15;;
12271;SDS011;6198;51.446;6.698;2023-08-20T13:20:40;6.00;;;3.37;;
12271;SDS011;6198;51.446;6.698;2023-08-20T13:23:07;7.95;;;3.20;;
12271;SDS011;6198;51.446;6.698;2023-08-20T13:25:33;8.48;;;3.45;;
12271;SDS011;6198;51.446;6.698;2023-08-20T13:27:59;8.13;;;3.28;;
12271;SDS011;6198;51.446;6.698;2023-08-20T13:30:25;6.32;;;3.17;;
12271;SDS011;6198;51.446;6.698;2023-08-20T13:32:51;5.32;;;2.95;;
12271;SDS011;6198;51.446;6.698;2023-08-20T13:35:17;7.55;;;3.13;;
12271;SDS011;6198;51.446;6.698;2023-08-20T13:37:43;5.75;;;3.03;;
12271;SDS011;6198;51.446;6.698;2023-08-20T13:40:09;6.15;;;3.20;;
12271;SDS011;6198;51.446;6.698;2023-08-20T13:42:35;8.43;;;4.00;;
12271;SDS011;6198;51.446;6.698;2023-08-20T13:45:01;7.32;;;3.67;;
12271;SDS011;6198;51.446;6.698;2023-08-20T13:47:28;6.65;;;3.28;;
12271;SDS011;6198;51.446;6.698;2023-08-20T13:49:54;8.43;;;3.20;;
12271;SDS011;6198;51.446;6.698;2023-08-20T13:52:20;8.57;;;3.38;;
12271;SDS011;6198;51.446;6.698;2023-08-20T13:54:46;7.38;;;2.92;;
12271;SDS011;6198;51.446;6.698;2023-08-20T13:57:12;6.63;;;2.97;;
12271;SDS011;6198;51.446;6.698;2023-08-20T13:59:38;6.40;;;3.10;;
12271;SDS011;6198;51.446;6.698;2023-08-20T14:02:04;6.03;;;3.08;;
12271;SDS011;6198;51.446;6.698;2023-08-20T14:04:31;7.63;;;3.00;;
12271;SDS011;6198;51.446;6.698;2023-08-20T14:06:57;5.20;;;3.00;;
12271;SDS011;6198;51.446;6.698;2023-08-20T14:09:22;5.82;;;3.13;;
12271;SDS011;6198;51.446;6.698;2023-08-20T14:11:50;6.88;;;3.55;;
12271;SDS011;6198;51.446;6.698;2023-08-20T14:14:16;7.35;;;3.17;;
12271;SDS011;6198;51.446;6.698;2023-08-20T14:16:42;6.07;;;2.90;;
12271;SDS011;6198;51.446;6.698;2023-08-20T14:19:08;5.03;;;3.20;;
12271;SDS011;6198;51.446;6.698;2023-08-20T14:21:34;5.88;;;2.95;;
12271;SDS011;6198;51.446;6.698;2023-08-20T14:23:59;7.07;;;2.72;;
12271;SDS011;6198;51.446;6.698;2023-08-20T14:26:25;6.93;;;2.75;;
12271;SDS011;6198;51.446;6.698;2023-08-20T14:28:51;4.45;;;2.80;;
12271;SDS011;6198;51.446;6.698;2023-08-20T14:31:17;7.18;;;2.97;;
12271;SDS011;6198;51.446;6.698;2023-08-20T14:33:44;7.28;;;2.67;;
12271;SDS011;6198;51.446;6.698;2023-08-20T14:36:10;4.90;;;2.95;;
12271;SDS011;6198;51.446;6.698;2023-08-20T14:45:53;7.35;;;3.67;;
12271;SDS011;6198;51.446;6.698;2023-08-20T14:48:20;5.07;;;3.25;;
12271;SDS011;6198;51.446;6.698;2023-08-20T14:50:46;5.07;;;3.20;;
12271;SDS011;6198;51.446;6.698;2023-08-20T14:53:13;5.43;;;3.33;;
12271;SDS011;6198;51.446;6.698;2023-08-20T14:55:39;5.53;;;2.80;;
12271;SDS011;6198;51.446;6.698;2023-08-20T14:58:05;5.00;;;2.90;;
12271;SDS011;6198;51.446;6.698;2023-08-20T15:00:31;4.35;;;2.90;;
12271;SDS011;6198;51.446;6.698;2023-08-20T15:02:58;6.70;;;2.95;;
12271;SDS011;6198;51.446;6.698;2023-08-20T15:05:24;6.57;;;2.90;;
12271;SDS011;6198;51.446;6.698;2023-08-20T15:07:49;5.40;;;3.03;;
12271;SDS011;6198;51.446;6.698;2023-08-20T15:10:15;7.45;;;3.28;;